createdAt,value
2023-02-16T00:00:46.781Z,49.70
2023-02-16T00:03:17.925Z,55.08
2023-02-16T00:05:44.288Z,50.53
2023-02-16T00:08:10.618Z,58.88
2023-02-16T00:10:38.009Z,54.13
2023-02-16T00:13:44.905Z,51.15
2023-02-16T00:16:15.960Z,51.38
2023-02-16T00:18:42.570Z,59.00
2023-02-16T00:21:09.223Z,56.58
2023-02-16T00:23:35.557Z,52.67
2023-02-16T00:26:01.962Z,50.00
2023-02-16T00:28:28.365Z,52.97
2023-02-16T00:30:54.769Z,55.30
2023-02-16T00:33:21.604Z,51.83
2023-02-16T00:35:48.080Z,52.17
2023-02-16T00:38:14.461Z,55.97
2023-02-16T00:40:41.658Z,53.38
2023-02-16T00:43:09.404Z,52.13
2023-02-16T00:45:36.961Z,49.47
2023-02-16T00:48:03.888Z,51.60
2023-02-16T00:50:32.199Z,52.13
2023-02-16T00:52:59.205Z,55.10
2023-02-16T00:55:33.487Z,53.20
2023-02-16T00:58:15.120Z,52.05
2023-02-16T01:00:46.814Z,48.95
2023-02-16T01:03:15.368Z,51.63
2023-02-16T01:05:41.709Z,52.95
2023-02-16T01:08:30.921Z,55.35
2023-02-16T01:11:09.836Z,54.67
2023-02-16T01:13:42.137Z,48.17
2023-02-16T01:16:13.339Z,50.17
2023-02-16T01:18:39.717Z,54.50
2023-02-16T01:21:06.063Z,55.38
2023-02-16T01:23:32.586Z,49.90
2023-02-16T01:25:58.964Z,50.30
2023-02-16T01:28:26.039Z,53.95
2023-02-16T01:30:53.202Z,46.30
2023-02-16T01:33:20.094Z,52.22
2023-02-16T01:35:46.589Z,52.17
2023-02-16T01:38:20.887Z,50.58
2023-02-16T01:40:57.274Z,52.33
2023-02-16T01:43:30.184Z,52.05
2023-02-16T01:46:05.719Z,53.85
2023-02-16T01:48:32.317Z,54.85
2023-02-16T01:51:34.029Z,49.63
2023-02-16T01:54:05.929Z,50.80
2023-02-16T01:56:54.596Z,49.60
2023-02-16T01:59:23.781Z,46.83
2023-02-16T02:01:55.254Z,51.08
2023-02-16T02:04:40.429Z,51.08
2023-02-16T02:07:06.917Z,51.05
2023-02-16T02:09:40.793Z,47.15
2023-02-16T02:12:14.393Z,48.15
2023-02-16T02:14:40.878Z,50.90
2023-02-16T02:17:09.381Z,51.83
2023-02-16T02:19:40.843Z,50.15
2023-02-16T02:22:28.815Z,46.47
2023-02-16T02:24:55.098Z,49.90
2023-02-16T02:27:25.913Z,53.17
2023-02-16T02:30:07.825Z,51.10
2023-02-16T02:32:46.525Z,54.25
2023-02-16T02:35:18.162Z,45.45
2023-02-16T02:37:47.532Z,48.33
2023-02-16T02:40:16.772Z,53.38
2023-02-16T02:42:51.267Z,51.78
2023-02-16T02:45:20.921Z,48.95
2023-02-16T02:47:47.944Z,60.80
2023-02-16T02:50:32.494Z,48.17
2023-02-16T02:53:00.934Z,44.28
2023-02-16T02:55:46.223Z,49.05
2023-02-16T02:58:32.252Z,50.10
2023-02-16T03:00:59.261Z,50.25
2023-02-16T03:03:31.900Z,47.13
2023-02-16T03:06:02.319Z,51.47
2023-02-16T03:08:30.245Z,44.90
2023-02-16T03:11:34.345Z,49.03
2023-02-16T03:14:03.214Z,45.75
2023-02-16T03:16:40.080Z,48.50
2023-02-16T03:19:26.987Z,48.70
2023-02-16T03:22:12.106Z,49.42
2023-02-16T03:24:57.281Z,48.15
2023-02-16T03:27:45.396Z,50.03
2023-02-16T03:30:12.645Z,46.40
2023-02-16T03:32:39.320Z,45.78
2023-02-16T03:35:05.912Z,41.90
2023-02-16T03:37:32.711Z,49.72
2023-02-16T03:40:17.455Z,47.88
2023-02-16T03:42:50.547Z,48.22
2023-02-16T03:45:17.487Z,47.70
2023-02-16T03:47:43.854Z,51.72
2023-02-16T03:50:10.479Z,46.30
2023-02-16T03:52:36.815Z,45.22
2023-02-16T03:55:03.247Z,44.60
2023-02-16T03:57:29.617Z,45.03
2023-02-16T03:59:57.713Z,48.95
2023-02-16T04:02:26.240Z,47.03
2023-02-16T04:04:52.641Z,49.22
2023-02-16T04:07:19.030Z,51.90
2023-02-16T04:09:45.337Z,45.92
2023-02-16T04:12:31.131Z,48.72
2023-02-16T04:14:58.062Z,44.58
2023-02-16T04:17:24.704Z,46.90
2023-02-16T04:19:51.242Z,47.35
2023-02-16T04:22:17.622Z,48.00
2023-02-16T04:24:44.032Z,41.45
2023-02-16T04:27:10.393Z,43.75
2023-02-16T04:29:36.765Z,42.50
2023-02-16T04:32:03.200Z,47.10
2023-02-16T04:34:29.719Z,49.25
2023-02-16T04:36:56.237Z,40.03
2023-02-16T04:39:22.609Z,42.42
2023-02-16T04:41:49.007Z,51.75
2023-02-16T04:44:15.445Z,44.85
2023-02-16T04:46:41.833Z,47.38
2023-02-16T04:49:08.215Z,45.47
2023-02-16T04:51:34.574Z,44.17
2023-02-16T04:54:00.992Z,45.38
2023-02-16T04:56:28.225Z,42.78
2023-02-16T04:58:55.679Z,46.97
2023-02-16T05:01:23.456Z,43.65
2023-02-16T05:03:49.856Z,43.45
2023-02-16T05:06:16.434Z,46.20
2023-02-16T05:08:42.866Z,45.58
2023-02-16T05:11:27.664Z,44.33
2023-02-16T05:14:12.566Z,47.88
2023-02-16T05:16:38.916Z,43.60
2023-02-16T05:19:05.382Z,49.65
2023-02-16T05:21:31.965Z,42.78
2023-02-16T05:23:59.393Z,43.38
2023-02-16T05:26:26.058Z,46.22
2023-02-16T05:28:52.467Z,45.75
2023-02-16T05:31:18.932Z,47.38
2023-02-16T05:33:45.377Z,41.75
2023-02-16T05:36:11.790Z,44.53
2023-02-16T05:38:38.185Z,45.28
2023-02-16T05:41:04.951Z,45.28
2023-02-16T05:43:31.581Z,47.65
2023-02-16T05:45:58.023Z,40.55
2023-02-16T05:48:24.539Z,47.80
2023-02-16T05:50:54.379Z,44.05
2023-02-16T05:53:20.818Z,43.42
2023-02-16T05:55:47.205Z,45.83
2023-02-16T05:58:13.552Z,45.60
2023-02-16T06:00:39.901Z,46.42
2023-02-16T06:03:06.413Z,48.72
2023-02-16T06:05:33.127Z,48.95
2023-02-16T06:07:59.506Z,41.50
2023-02-16T06:10:27.024Z,42.42
2023-02-16T06:12:53.389Z,45.58
2023-02-16T06:15:19.798Z,43.08
2023-02-16T06:17:46.107Z,40.92
2023-02-16T06:20:12.649Z,41.97
2023-02-16T06:22:38.985Z,42.08
2023-02-16T06:25:05.579Z,52.55
2023-02-16T06:27:31.906Z,45.25
2023-02-16T06:29:58.352Z,44.65
2023-02-16T06:32:24.919Z,42.33
2023-02-16T06:34:51.399Z,49.80
2023-02-16T06:37:17.801Z,50.45
2023-02-16T06:39:44.147Z,45.58
2023-02-16T06:42:10.553Z,46.78
2023-02-16T06:44:38.546Z,43.90
2023-02-16T06:47:05.066Z,43.67
2023-02-16T06:49:31.483Z,40.28
2023-02-16T06:51:58.059Z,44.33
2023-02-16T06:54:24.389Z,45.90
2023-02-16T06:56:50.716Z,42.25
2023-02-16T06:59:17.152Z,47.65
2023-02-16T07:01:45.226Z,39.53
2023-02-16T07:04:11.811Z,49.80
2023-02-16T07:06:38.254Z,43.33
2023-02-16T07:09:04.691Z,46.00
2023-02-16T07:11:31.086Z,42.67
2023-02-16T07:13:57.658Z,48.88
2023-02-16T07:16:24.206Z,58.58
2023-02-16T07:18:51.365Z,47.47
2023-02-16T07:21:17.708Z,47.40
2023-02-16T07:23:44.168Z,48.17
2023-02-16T07:26:10.651Z,45.40
2023-02-16T07:28:37.145Z,47.03
2023-02-16T07:31:11.194Z,43.47
2023-02-16T07:33:38.028Z,45.45
2023-02-16T07:36:04.578Z,40.25
2023-02-16T07:38:30.891Z,47.45
2023-02-16T07:40:57.942Z,45.58
2023-02-16T07:43:24.632Z,48.13
2023-02-16T07:45:51.057Z,46.08
2023-02-16T07:48:17.868Z,48.00
2023-02-16T07:50:44.304Z,48.78
2023-02-16T07:53:12.881Z,44.65
2023-02-16T07:55:40.571Z,46.67
2023-02-16T07:58:07.318Z,43.88
2023-02-16T08:00:33.752Z,45.45
2023-02-16T08:03:00.292Z,46.10
2023-02-16T08:05:26.723Z,44.95
2023-02-16T08:07:53.054Z,47.05
2023-02-16T08:10:19.547Z,42.83
2023-02-16T08:12:46.111Z,47.35
2023-02-16T08:15:12.642Z,46.60
2023-02-16T08:17:39.109Z,45.42
2023-02-16T08:20:07.797Z,45.40
2023-02-16T08:22:34.780Z,42.08
2023-02-16T08:25:01.212Z,46.47
2023-02-16T08:27:27.660Z,45.28
2023-02-16T08:29:54.179Z,51.33
2023-02-16T08:32:21.036Z,44.92
2023-02-16T08:34:47.642Z,49.33
2023-02-16T08:37:14.053Z,46.13
2023-02-16T08:39:40.653Z,47.58
2023-02-16T08:42:07.034Z,49.92
2023-02-16T08:44:33.668Z,49.65
2023-02-16T08:47:00.808Z,44.88
2023-02-16T08:49:27.708Z,45.28
2023-02-16T08:51:55.795Z,47.03
2023-02-16T08:54:30.304Z,47.55
2023-02-16T08:56:58.830Z,44.40
2023-02-16T08:59:28.341Z,47.38
2023-02-16T09:01:55.258Z,48.72
2023-02-16T09:04:21.686Z,48.83
2023-02-16T09:06:48.546Z,44.83
2023-02-16T09:09:15.287Z,49.63
2023-02-16T09:11:41.693Z,48.47
2023-02-16T09:14:09.386Z,47.53
2023-02-16T09:16:38.838Z,43.83
2023-02-16T09:19:05.994Z,47.30
2023-02-16T09:21:32.481Z,44.70
2023-02-16T09:24:00.808Z,47.45
2023-02-16T09:26:29.223Z,49.53
2023-02-16T09:28:56.399Z,43.95
2023-02-16T09:31:26.299Z,44.30
2023-02-16T09:33:57.661Z,45.78
2023-02-16T09:36:24.157Z,53.60
2023-02-16T09:38:51.397Z,46.55
2023-02-16T09:41:24.949Z,46.10
2023-02-16T09:44:05.680Z,48.25
2023-02-16T09:46:33.404Z,45.30
2023-02-16T09:49:02.409Z,46.50
2023-02-16T09:51:41.164Z,44.42
2023-02-16T09:54:32.435Z,52.83
2023-02-16T09:57:01.769Z,50.00
2023-02-16T09:59:38.186Z,51.05
2023-02-16T10:02:16.622Z,47.20
2023-02-16T10:05:02.115Z,44.65
2023-02-16T10:07:34.241Z,51.43
2023-02-16T10:10:01.111Z,49.47
2023-02-16T10:12:32.128Z,55.45
2023-02-16T10:15:14.307Z,47.60
2023-02-16T10:17:44.182Z,50.47
2023-02-16T10:20:25.624Z,50.50
2023-02-16T10:22:57.982Z,49.42
2023-02-16T10:25:33.109Z,49.78
2023-02-16T10:28:20.279Z,54.05
2023-02-16T10:30:57.563Z,48.25
2023-02-16T10:35:56.645Z,48.60
2023-02-16T10:38:32.323Z,45.40
2023-02-16T10:41:06.222Z,48.17
2023-02-16T10:43:53.222Z,49.33
2023-02-16T10:46:25.439Z,52.53
2023-02-16T10:48:55.828Z,54.00
2023-02-16T10:51:27.984Z,51.60
2023-02-16T10:54:05.756Z,46.22
2023-02-16T10:56:41.528Z,43.75
2023-02-16T10:59:14.087Z,40.83
2023-02-16T11:01:43.843Z,50.40
2023-02-16T11:04:28.941Z,51.83
2023-02-16T11:07:03.217Z,54.13
2023-02-16T11:09:29.572Z,48.92
2023-02-16T11:11:56.197Z,54.95
2023-02-16T11:14:24.170Z,54.50
2023-02-16T11:17:02.826Z,55.25
2023-02-16T11:19:32.343Z,46.75
2023-02-16T11:21:59.269Z,49.83
2023-02-16T11:24:27.747Z,53.53
2023-02-16T11:27:14.414Z,51.53
2023-02-16T11:29:41.189Z,41.67
2023-02-16T11:32:08.353Z,43.50
2023-02-16T11:34:43.214Z,37.08
2023-02-16T11:37:12.733Z,40.13
2023-02-16T11:39:40.094Z,38.42
2023-02-16T11:42:30.162Z,35.50
2023-02-16T11:44:57.393Z,36.05
2023-02-16T11:47:37.630Z,33.95
2023-02-16T11:50:26.956Z,31.70
2023-02-16T11:52:55.037Z,33.08
2023-02-16T11:55:26.763Z,32.22
2023-02-16T11:57:54.119Z,33.67
2023-02-16T12:00:22.242Z,37.85
2023-02-16T12:03:06.907Z,31.60
2023-02-16T12:05:48.610Z,32.80
2023-02-16T12:08:20.803Z,32.42
2023-02-16T12:10:50.109Z,31.05
2023-02-16T12:13:28.882Z,31.77
2023-02-16T12:16:07.609Z,28.85
2023-02-16T12:18:40.676Z,31.60
2023-02-16T12:21:20.150Z,32.70
2023-02-16T12:24:09.503Z,33.03
2023-02-16T12:27:14.573Z,29.63
2023-02-16T12:29:56.255Z,28.42
2023-02-16T12:32:32.025Z,31.13
2023-02-16T12:35:01.601Z,28.73
2023-02-16T12:37:43.420Z,30.45
2023-02-16T12:40:24.947Z,28.05
2023-02-16T12:42:54.331Z,26.92
2023-02-16T12:45:22.625Z,31.75
2023-02-16T12:47:52.423Z,26.67
2023-02-16T12:50:24.103Z,27.45
2023-02-16T12:52:54.032Z,28.20
2023-02-16T12:55:38.921Z,25.88
2023-02-16T12:58:05.279Z,27.65
2023-02-16T13:00:37.214Z,25.60
2023-02-16T13:03:15.981Z,29.40
2023-02-16T13:05:43.443Z,31.00
2023-02-16T13:08:16.483Z,31.05
2023-02-16T13:10:55.405Z,34.38
2023-02-16T13:13:25.034Z,29.70
2023-02-16T13:16:01.712Z,35.63
2023-02-16T13:18:31.373Z,25.70
2023-02-16T13:21:00.490Z,32.13
2023-02-16T13:23:35.834Z,26.92
2023-02-16T13:26:18.137Z,28.75
2023-02-16T13:29:03.281Z,26.52
2023-02-16T13:31:36.688Z,29.23
2023-02-16T13:34:06.230Z,26.83
2023-02-16T13:36:39.085Z,28.80
2023-02-16T13:39:11.298Z,25.38
2023-02-16T13:41:47.172Z,28.25
2023-02-16T13:46:43.139Z,29.58
2023-02-16T13:49:27.562Z,25.75
2023-02-16T13:51:55.297Z,29.97
2023-02-16T13:54:32.070Z,33.10
2023-02-16T13:56:58.697Z,25.30
2023-02-16T13:59:25.129Z,27.45
2023-02-16T14:01:53.675Z,29.30
2023-02-16T14:04:23.025Z,27.65
2023-02-16T14:06:50.549Z,26.75
2023-02-16T14:09:16.918Z,26.88
2023-02-16T14:11:57.471Z,24.48
2023-02-16T14:14:33.598Z,27.92
2023-02-16T14:17:18.032Z,31.15
2023-02-16T14:19:50.285Z,28.48
2023-02-16T14:22:24.819Z,25.52
2023-02-16T14:24:52.479Z,30.50
2023-02-16T14:27:38.821Z,19.63
2023-02-16T14:35:05.646Z,24.10
2023-02-16T14:37:53.032Z,20.17
2023-02-16T14:40:21.761Z,24.45
2023-02-16T14:42:51.095Z,18.20
2023-02-16T14:45:23.538Z,18.48
2023-02-16T14:47:58.875Z,19.75
2023-02-16T14:50:38.119Z,19.90
2023-02-16T14:53:22.665Z,24.85
2023-02-16T14:55:55.223Z,17.63
2023-02-16T14:58:25.919Z,21.02
2023-02-16T15:00:52.334Z,19.95
2023-02-16T15:03:22.197Z,20.05
2023-02-16T15:05:51.136Z,20.98
2023-02-16T15:08:22.597Z,21.42
2023-02-16T15:10:54.065Z,26.10
2023-02-16T15:13:21.687Z,23.42
2023-02-16T15:15:50.083Z,20.13
2023-02-16T15:18:17.893Z,21.95
2023-02-16T15:20:45.957Z,22.90
2023-02-16T15:23:25.003Z,27.52
2023-02-16T15:25:53.031Z,25.20
2023-02-16T15:28:22.264Z,16.52
2023-02-16T15:30:50.580Z,23.65
2023-02-16T15:33:23.052Z,20.13
2023-02-16T15:35:59.881Z,20.75
2023-02-16T15:38:27.945Z,19.50
2023-02-16T15:40:55.237Z,25.30
2023-02-16T15:43:22.310Z,21.75
2023-02-16T15:45:52.731Z,21.40
2023-02-16T15:48:23.987Z,18.40
2023-02-16T15:50:55.077Z,23.92
2023-02-16T15:53:30.358Z,22.13
2023-02-16T15:55:56.781Z,22.70
2023-02-16T15:58:23.157Z,21.50
2023-02-16T16:00:49.607Z,21.15
2023-02-16T16:03:17.145Z,18.17
2023-02-16T16:05:52.809Z,19.45
2023-02-16T16:08:22.692Z,22.92
2023-02-16T16:10:49.150Z,18.15
2023-02-16T16:13:18.725Z,17.80
2023-02-16T16:15:46.622Z,20.02
2023-02-16T16:18:31.506Z,17.23
2023-02-16T16:21:02.661Z,17.30
2023-02-16T16:23:29.374Z,17.25
2023-02-16T16:25:55.903Z,14.90
2023-02-16T16:28:28.536Z,15.32
2023-02-16T16:31:12.409Z,11.88
2023-02-16T16:33:53.875Z,11.55
2023-02-16T16:36:20.929Z,9.80
2023-02-16T16:38:47.795Z,9.18
2023-02-16T16:41:27.722Z,10.40
2023-02-16T16:43:55.421Z,8.65
2023-02-16T16:46:25.829Z,13.88
2023-02-16T16:49:04.284Z,11.25
2023-02-16T16:51:31.593Z,13.88
2023-02-16T16:54:03.952Z,10.68
2023-02-16T16:56:31.375Z,8.88
2023-02-16T16:58:58.365Z,10.25
2023-02-16T17:01:25.804Z,8.98
2023-02-16T17:03:52.212Z,12.77
2023-02-16T17:06:19.121Z,9.80
2023-02-16T17:08:45.782Z,10.18
2023-02-16T17:11:14.460Z,8.93
2023-02-16T17:13:40.815Z,7.40
2023-02-16T17:16:08.904Z,8.40
2023-02-16T17:18:35.370Z,8.07
2023-02-16T17:21:01.729Z,8.25
2023-02-16T17:23:28.038Z,6.93
2023-02-16T17:25:54.447Z,7.25
2023-02-16T17:28:21.528Z,8.57
2023-02-16T17:30:47.956Z,7.35
2023-02-16T17:33:14.539Z,6.75
2023-02-16T17:35:42.103Z,6.05
2023-02-16T17:38:09.726Z,5.40
2023-02-16T17:40:36.204Z,5.68
2023-02-16T17:43:02.937Z,5.90
2023-02-16T17:45:29.335Z,4.72
2023-02-16T17:47:55.669Z,5.10
2023-02-16T17:50:22.087Z,4.18
2023-02-16T17:52:48.488Z,4.70
2023-02-16T17:55:15.171Z,3.38
2023-02-16T17:57:41.748Z,7.38
2023-02-16T18:00:09.660Z,3.20
2023-02-16T18:02:36.017Z,4.03
2023-02-16T18:05:02.333Z,4.80
2023-02-16T18:07:28.746Z,3.63
2023-02-16T18:09:55.149Z,3.33
2023-02-16T18:12:21.478Z,4.07
2023-02-16T18:14:47.937Z,3.88
2023-02-16T18:17:14.451Z,5.50
2023-02-16T18:19:40.845Z,4.47
2023-02-16T18:22:07.266Z,4.20
2023-02-16T18:24:33.628Z,3.67
2023-02-16T18:27:00.071Z,5.53
2023-02-16T18:29:26.486Z,6.22
2023-02-16T18:31:52.922Z,4.07
2023-02-16T18:34:19.402Z,3.63
2023-02-16T18:36:45.722Z,3.75
2023-02-16T18:39:12.248Z,3.03
2023-02-16T18:41:38.676Z,3.45
2023-02-16T18:44:05.381Z,3.03
2023-02-16T18:46:31.766Z,3.55
2023-02-16T18:48:58.175Z,2.83
2023-02-16T18:51:28.846Z,2.55
2023-02-16T18:53:55.420Z,1.98
2023-02-16T18:56:21.768Z,2.17
2023-02-16T18:58:48.216Z,2.83
2023-02-16T19:01:26.859Z,3.13
2023-02-16T19:03:53.285Z,2.25
2023-02-16T19:06:19.673Z,2.80
2023-02-16T19:08:46.417Z,4.28
2023-02-16T19:11:13.045Z,3.65
2023-02-16T19:13:39.480Z,5.47
2023-02-16T19:16:06.502Z,5.75
2023-02-16T19:18:33.113Z,6.07
2023-02-16T19:20:59.469Z,4.45
2023-02-16T19:23:25.870Z,6.20
2023-02-16T19:25:52.249Z,5.97
2023-02-16T19:28:18.656Z,6.50
2023-02-16T19:30:45.017Z,4.75
2023-02-16T19:33:11.665Z,5.68
2023-02-16T19:35:38.060Z,6.78
2023-02-16T19:38:04.457Z,5.90
2023-02-16T19:40:31.652Z,6.00
2023-02-16T19:42:58.014Z,6.60
2023-02-16T19:45:24.904Z,5.35
2023-02-16T19:47:51.478Z,5.55
2023-02-16T19:50:17.986Z,5.82
2023-02-16T19:52:44.328Z,5.65
2023-02-16T19:55:11.702Z,8.07
2023-02-16T19:57:38.348Z,5.00
2023-02-16T20:00:05.925Z,3.80
2023-02-16T20:02:32.380Z,6.65
2023-02-16T20:04:58.757Z,11.75
2023-02-16T20:07:25.278Z,9.43
2023-02-16T20:09:51.644Z,10.57
2023-02-16T20:12:18.032Z,8.55
2023-02-16T20:14:44.370Z,11.55
2023-02-16T20:17:10.997Z,16.23
2023-02-16T20:19:37.333Z,12.82
2023-02-16T20:22:03.694Z,12.13
2023-02-16T20:24:30.049Z,12.48
2023-02-16T20:26:56.357Z,14.23
2023-02-16T20:29:22.826Z,15.80
2023-02-16T20:31:51.069Z,10.65
2023-02-16T20:34:17.604Z,10.35
2023-02-16T20:36:44.014Z,11.07
2023-02-16T20:39:10.412Z,14.77
2023-02-16T20:41:37.004Z,8.98
2023-02-16T20:44:03.987Z,11.27
2023-02-16T20:46:30.532Z,11.00
2023-02-16T20:48:57.088Z,10.07
2023-02-16T20:51:23.887Z,10.20
2023-02-16T20:53:50.618Z,11.57
2023-02-16T20:56:20.679Z,11.43
2023-02-16T20:58:48.107Z,11.82
2023-02-16T21:01:20.294Z,11.40
2023-02-16T21:03:46.737Z,10.57
2023-02-16T21:06:13.129Z,8.02
2023-02-16T21:08:40.038Z,9.80
2023-02-16T21:11:06.645Z,13.35
2023-02-16T21:13:33.285Z,10.40
2023-02-16T21:15:59.717Z,10.98
2023-02-16T21:18:26.350Z,9.50
2023-02-16T21:20:52.722Z,9.77
2023-02-16T21:23:19.190Z,13.50
2023-02-16T21:25:45.526Z,10.25
2023-02-16T21:28:11.937Z,4.50
2023-02-16T21:30:38.359Z,12.80
2023-02-16T21:33:04.679Z,9.65
2023-02-16T21:35:32.423Z,9.20
2023-02-16T21:37:58.838Z,9.48
2023-02-16T21:40:43.692Z,9.00
2023-02-16T21:43:11.135Z,10.10
2023-02-16T21:45:37.509Z,13.98
2023-02-16T21:48:22.573Z,13.18
2023-02-16T21:50:48.976Z,13.18
2023-02-16T21:53:15.372Z,10.32
2023-02-16T21:56:00.534Z,12.77
2023-02-16T21:58:27.093Z,13.98
2023-02-16T22:00:53.851Z,8.70
2023-02-16T22:03:20.719Z,6.95
2023-02-16T22:05:47.147Z,12.73
2023-02-16T22:08:14.530Z,10.70
2023-02-16T22:10:40.989Z,5.60
2023-02-16T22:13:07.348Z,10.85
2023-02-16T22:15:35.184Z,15.60
2023-02-16T22:18:01.610Z,11.35
2023-02-16T22:20:28.066Z,10.30
2023-02-16T22:22:54.434Z,12.50
2023-02-16T22:25:20.808Z,10.93
2023-02-16T22:27:47.155Z,11.02
2023-02-16T22:30:13.559Z,8.13
2023-02-16T22:32:40.389Z,13.10
2023-02-16T22:35:06.958Z,9.18
2023-02-16T22:37:33.742Z,10.63
2023-02-16T22:40:00.140Z,10.65
2023-02-16T22:42:26.804Z,12.57
2023-02-16T22:44:53.151Z,14.27
2023-02-16T22:47:19.546Z,16.02
2023-02-16T22:49:45.883Z,14.55
2023-02-16T22:52:12.195Z,17.75
2023-02-16T22:54:38.580Z,15.77
2023-02-16T22:57:07.096Z,13.30
2023-02-16T22:59:33.489Z,11.73
2023-02-16T23:01:59.822Z,15.43
2023-02-16T23:04:26.249Z,15.02
2023-02-16T23:06:52.698Z,19.88
2023-02-16T23:09:20.780Z,12.63
2023-02-16T23:11:47.538Z,16.40
2023-02-16T23:14:16.775Z,14.55
2023-02-16T23:16:44.195Z,15.15
2023-02-16T23:19:12.237Z,16.65
2023-02-16T23:21:38.760Z,17.55
2023-02-16T23:24:05.244Z,14.43
2023-02-16T23:26:32.236Z,14.52
2023-02-16T23:28:59.904Z,17.77
2023-02-16T23:31:26.418Z,14.02
2023-02-16T23:33:52.829Z,13.45
2023-02-16T23:36:19.183Z,12.52
2023-02-16T23:38:45.578Z,13.50
2023-02-16T23:41:12.741Z,14.52
2023-02-16T23:43:39.250Z,21.55
2023-02-16T23:46:05.986Z,14.18
2023-02-16T23:48:32.847Z,15.65
2023-02-16T23:50:59.261Z,16.50
2023-02-16T23:53:26.312Z,19.17
2023-02-16T23:55:58.508Z,19.05
2023-02-16T23:58:25.632Z,21.23
